Upton, NY (11973)

7:58 AM EDT on September 04, 2015 (GMT -0400)
Rolling Hills | | Change Station
CLOSE
Current Station
Personal Weather Station
Location: Ridge, NY
Elevation: 120 ft
Nearby Weather Stations

Elev 120 ft 40.88 °N, 72.92 °W | Updated 18 seconds ago

Partly Cloudy
Partly Cloudy
72.1 °F
Feels Like 72.1 °F
N
0.0
Wind Variable Wind from East
Gusts 1.0 mph

Today
High -- | Low -- °F
--% Chance of Precip.
Yesterday
High -- | Low -- °F
Precip. -- in
6:21 AM 7:19 PM
Waning Gibbous, 60% visible
Pressure 30.03 in
Visibility 4.0 miles
Clouds Few 900 ft
Dew Point 71 °F
Humidity 96%
Rainfall 0.00 in
Snow Depth Not available.
UV 1 out of 12
Pollen 8.20 out of 12
Air Quality Not available.
Flu Activity Not available.
METAR KHWV 041156Z AUTO VRB03KT 4SM BR FEW009 23/22 A3003 RMK AO2 SLP167 T02330217 10233 20206 51022 TSNO
Pressure 30.03 in
Visibility 4.0 miles
Clouds Few 900 ft
Dew Point 71 °F
Humidity 96%
Rainfall 0.00 in
Snow Depth Not available.
UV 1 out of 12
Pollen 8.20 out of 12
Air Quality Not available.
Flu Activity Not available.
METAR KHWV 041156Z AUTO VRB03KT 4SM BR FEW009 23/22 A3003 RMK AO2 SLP167 T02330217 10233 20206 51022 TSNO

10-Day Weather Forecast

×

Almanac

Astronomy

Sep. 04, 2015 Rise Set
Actual Time
Civil Twilight
Nautical Twilight
Astronomical Twilight
Moon
Length of Visible Light
Length of Day
Tomorrow will be .
, % of the Moon is Illuminated

Today's Extremes

State Highs State Lows

Community

WunderPhotos

Upload Photos

1,852,157 photos uploaded!

WunderBlogs® & News

Nearby

Air Quality

  Air Quality AQ Index Pollutant
Not available.

Snow Depth

Station Depth Elevation

Earthquake Activity

City Distance Mag. Time & Date
Minimum magnitude displayed is 2.5.

Coastal Water Temperatures

Place Temperature

Stations

Nearby Weather Stations

Station Location Temp. Windchill Dew Point Humidity Wind Precip. Elev Updated Type